CheckWX is a tool to help pilots better visualize weather data.  It is not intended as a substitute for an official pre-flight weather briefing.

17:38:28 UTC

CYIK TAF
Ivujivik Airport
Ivujivik, Canada
TAF AMD CYIK 241507Z 2415/2421 32024G36KT 3/4SM -SHSN BLSN OVC020 TEMPO 2415/2418 3SM BLSN OVC030 RMK NXT FCST WILL BE ISSUED AT 251345Z

Mar-24@
15:00 UTC

Mar-24 @ 15:00 UTC

Mar-24@
21:00 UTC

Mar-24 @ 21:00 UTC

TAF AMD CYIK 241507Z 2415/2421 32024G36KT 3/4SM -SHSN BLSN OVC020
Wind
  • 320° at 24 KTS
  • {Gusting to 36 KTS
Conditions
Light Snow, Blowing Snow
Cloud Levels
  • Overcast at 2,000' AGL

Mar-24@
15:00 UTC

Mar-24 @ 15:00 UTC

Mar-24@
18:00 UTC

Mar-24 @ 18:00 UTC

TEMPO 2415/2418 3SM BLSN OVC030 RMK NXT FCST WILL BE ISSUED AT 251345Z

Temporary

Temporary Changes expected for less than half the time period

Conditions
Blowing Snow
Cloud Levels
  • Overcast at 3,000' AGL